createdAt,value
2022-08-17T00:01:52.051Z,24.82
2022-08-17T00:04:24.785Z,24.83
2022-08-17T00:06:56.370Z,24.84
2022-08-17T00:09:27.989Z,24.84
2022-08-17T00:12:41.040Z,24.83
2022-08-17T00:14:54.464Z,24.82
2022-08-17T00:17:25.966Z,24.79
2022-08-17T00:19:57.539Z,24.75
2022-08-17T00:22:34.291Z,24.72
2022-08-17T00:25:09.249Z,24.64
2022-08-17T00:27:40.901Z,24.61
2022-08-17T00:30:14.559Z,24.56
2022-08-17T00:33:23.044Z,24.50
2022-08-17T00:35:38.913Z,24.46
2022-08-17T00:38:30.937Z,24.41
2022-08-17T00:41:04.575Z,24.37
2022-08-17T00:43:37.149Z,24.35
2022-08-17T00:46:10.103Z,24.34
2022-08-17T00:48:44.335Z,24.33
2022-08-17T00:51:18.774Z,24.30
2022-08-17T00:53:52.866Z,24.28
2022-08-17T00:56:28.948Z,24.24
2022-08-17T00:59:00.685Z,24.24
2022-08-17T01:01:32.929Z,24.24
2022-08-17T01:04:05.520Z,24.28
2022-08-17T01:06:37.134Z,24.33
2022-08-17T01:09:09.024Z,24.40
2022-08-17T01:11:41.034Z,24.43
2022-08-17T01:14:12.448Z,24.45
2022-08-17T01:16:44.000Z,24.45
2022-08-17T01:19:17.765Z,24.46
2022-08-17T01:21:52.228Z,24.43
2022-08-17T01:24:23.580Z,24.39
2022-08-17T01:26:56.686Z,24.35
2022-08-17T01:29:31.060Z,24.31
2022-08-17T01:32:04.077Z,24.23
2022-08-17T01:34:43.553Z,24.21
2022-08-17T01:37:29.062Z,24.16
2022-08-17T01:40:04.363Z,24.11
2022-08-17T01:42:38.212Z,24.04
2022-08-17T01:45:11.539Z,23.98
2022-08-17T01:47:43.539Z,23.96
2022-08-17T01:50:18.867Z,23.95
2022-08-17T01:52:52.037Z,23.93
2022-08-17T01:55:27.509Z,23.91
2022-08-17T01:57:58.912Z,23.88
2022-08-17T02:00:59.425Z,23.84
2022-08-17T02:03:22.168Z,23.81
2022-08-17T02:05:53.914Z,23.81
2022-08-17T02:08:39.351Z,23.82
2022-08-17T02:11:21.497Z,23.86
2022-08-17T02:13:57.783Z,23.91
2022-08-17T02:16:37.432Z,23.97
2022-08-17T02:19:10.773Z,24.02
2022-08-17T02:21:42.717Z,24.05
2022-08-17T02:24:17.073Z,24.06
2022-08-17T02:26:48.491Z,24.07
2022-08-17T02:29:20.271Z,24.01
2022-08-17T02:31:51.674Z,23.98
2022-08-17T02:34:23.026Z,23.96
2022-08-17T02:36:54.677Z,23.94
2022-08-17T02:39:26.106Z,23.92
2022-08-17T02:42:03.249Z,23.90
2022-08-17T02:44:40.242Z,23.88
2022-08-17T02:47:12.678Z,23.86
2022-08-17T02:49:55.870Z,23.84
2022-08-17T02:52:42.881Z,23.81
2022-08-17T02:55:16.205Z,23.78
2022-08-17T02:57:48.028Z,23.75
2022-08-17T03:00:22.767Z,23.72
2022-08-17T03:02:54.331Z,23.70
2022-08-17T03:05:29.968Z,23.71
2022-08-17T03:08:01.528Z,23.69
2022-08-17T03:10:32.969Z,23.66
2022-08-17T03:13:04.263Z,23.62
2022-08-17T03:15:36.359Z,23.59
2022-08-17T03:18:19.109Z,23.57
2022-08-17T03:20:58.247Z,23.59
2022-08-17T03:23:30.461Z,23.60
2022-08-17T03:26:02.494Z,23.65
2022-08-17T03:28:33.814Z,23.72
2022-08-17T03:31:05.918Z,23.79
2022-08-17T03:33:37.534Z,23.84
2022-08-17T03:36:10.027Z,23.85
2022-08-17T03:38:41.577Z,23.85
2022-08-17T03:41:13.996Z,23.85
2022-08-17T03:43:45.456Z,23.82
2022-08-17T03:46:35.601Z,23.79
2022-08-17T03:49:27.301Z,23.77
2022-08-17T03:52:16.886Z,23.74
2022-08-17T03:55:06.252Z,23.68
2022-08-17T03:57:58.074Z,23.66
2022-08-17T04:00:29.490Z,23.65
2022-08-17T04:03:01.089Z,23.66
2022-08-17T04:05:32.349Z,23.66
2022-08-17T04:08:06.333Z,23.65
2022-08-17T04:10:38.486Z,23.65
2022-08-17T04:13:16.558Z,23.60
2022-08-17T04:15:56.557Z,23.59
2022-08-17T04:18:28.006Z,23.61
2022-08-17T04:20:59.557Z,23.67
2022-08-17T04:23:34.124Z,23.76
2022-08-17T04:26:05.826Z,23.79
2022-08-17T04:28:37.294Z,23.88
2022-08-17T04:31:09.594Z,23.94
2022-08-17T04:33:42.857Z,24.00
2022-08-17T04:36:15.476Z,24.11
2022-08-17T04:38:47.535Z,24.17
2022-08-17T04:41:38.840Z,24.21
2022-08-17T04:44:14.840Z,24.20
2022-08-17T04:47:07.508Z,24.18
2022-08-17T04:49:42.132Z,24.14
2022-08-17T04:52:32.248Z,24.07
2022-08-17T04:55:06.578Z,24.09
2022-08-17T04:57:41.802Z,24.15
2022-08-17T05:00:16.847Z,24.25
2022-08-17T05:02:50.183Z,24.33
2022-08-17T05:05:22.639Z,24.43
2022-08-17T05:07:54.714Z,24.55
2022-08-17T05:10:26.444Z,24.56
2022-08-17T05:13:01.162Z,24.70
2022-08-17T05:15:36.062Z,25.18
2022-08-17T05:18:10.409Z,25.39
2022-08-17T05:20:42.704Z,25.29
2022-08-17T05:23:15.543Z,25.26
2022-08-17T05:25:51.731Z,25.84
2022-08-17T05:28:27.474Z,26.73
2022-08-17T05:31:01.542Z,27.59
2022-08-17T05:33:34.536Z,28.21
2022-08-17T05:36:06.991Z,28.76
2022-08-17T05:38:38.588Z,29.39
2022-08-17T05:41:10.442Z,29.95
2022-08-17T05:43:44.473Z,30.15
2022-08-17T05:46:18.132Z,30.28
2022-08-17T05:48:54.317Z,30.56
2022-08-17T05:51:39.877Z,31.02
2022-08-17T05:54:17.145Z,31.59
2022-08-17T05:57:01.171Z,31.76
2022-08-17T05:59:38.228Z,31.60
2022-08-17T06:02:16.653Z,30.94
2022-08-17T06:04:56.593Z,30.36
2022-08-17T06:07:33.761Z,29.89
2022-08-17T06:10:07.735Z,29.51
2022-08-17T06:12:44.597Z,29.24
2022-08-17T06:15:27.942Z,29.06
2022-08-17T06:18:01.621Z,28.87
2022-08-17T06:20:37.570Z,28.79
2022-08-17T06:23:21.169Z,28.84
2022-08-17T06:25:53.968Z,28.92
2022-08-17T06:28:28.339Z,29.04
2022-08-17T06:31:04.008Z,29.03
2022-08-17T06:33:37.757Z,28.99
2022-08-17T06:36:15.882Z,28.83
2022-08-17T06:38:54.513Z,28.53
2022-08-17T06:41:28.803Z,28.54
2022-08-17T06:44:12.073Z,28.62
2022-08-17T06:47:06.409Z,28.88
2022-08-17T06:49:42.297Z,29.75
2022-08-17T06:52:37.617Z,29.72
2022-08-17T06:55:17.986Z,30.30
2022-08-17T06:57:53.127Z,31.82
2022-08-17T07:00:25.735Z,32.25
2022-08-17T07:02:59.987Z,32.95
2022-08-17T07:05:34.110Z,33.04
2022-08-17T07:08:11.979Z,32.54
2022-08-17T07:10:46.380Z,32.22
2022-08-17T07:13:31.317Z,32.38
2022-08-17T07:16:06.284Z,32.86
2022-08-17T07:18:37.748Z,33.87
2022-08-17T07:21:17.650Z,34.54
2022-08-17T07:23:55.875Z,34.94
2022-08-17T07:26:27.935Z,35.78
2022-08-17T07:29:01.415Z,36.51
2022-08-17T07:31:33.861Z,36.99
2022-08-17T07:34:08.352Z,36.46
2022-08-17T07:36:39.842Z,35.93
2022-08-17T07:39:11.998Z,36.16
2022-08-17T07:41:53.354Z,36.34
2022-08-17T07:44:30.898Z,36.46
2022-08-17T07:47:20.164Z,36.90
2022-08-17T07:49:51.740Z,36.50
2022-08-17T07:52:50.295Z,35.93
2022-08-17T07:55:33.142Z,34.98
2022-08-17T07:58:04.791Z,34.31
2022-08-17T08:00:37.583Z,33.74
2022-08-17T08:03:16.373Z,33.40
2022-08-17T08:05:56.691Z,33.06
2022-08-17T08:08:29.774Z,32.78
2022-08-17T08:11:06.884Z,32.59
2022-08-17T08:13:42.894Z,32.33
2022-08-17T08:16:21.274Z,32.07
2022-08-17T08:18:56.768Z,32.03
2022-08-17T08:21:37.031Z,32.00
2022-08-17T08:24:23.109Z,31.92
2022-08-17T08:27:00.292Z,31.82
2022-08-17T08:29:38.378Z,31.77
2022-08-17T08:32:14.113Z,31.68
2022-08-17T08:35:01.966Z,31.68
2022-08-17T08:37:49.420Z,31.56
2022-08-17T08:40:35.390Z,31.83
2022-08-17T08:43:11.954Z,32.03
2022-08-17T08:45:48.476Z,31.97
2022-08-17T08:48:56.768Z,31.83
2022-08-17T08:51:23.585Z,31.61
2022-08-17T08:54:00.691Z,31.64
2022-08-17T08:56:37.490Z,31.67
2022-08-17T08:59:16.753Z,31.81
2022-08-17T09:01:55.532Z,31.84
2022-08-17T09:04:44.910Z,31.79
2022-08-17T09:07:29.774Z,31.75
2022-08-17T09:10:05.383Z,31.78
2022-08-17T09:12:41.901Z,31.81
2022-08-17T09:15:17.971Z,31.83
2022-08-17T09:18:08.856Z,31.94
2022-08-17T09:20:50.177Z,32.21
2022-08-17T09:23:27.487Z,32.17
2022-08-17T09:26:02.345Z,31.97
2022-08-17T09:28:35.882Z,31.78
2022-08-17T09:31:09.561Z,31.59
2022-08-17T09:33:42.744Z,31.38
2022-08-17T09:36:17.248Z,31.19
2022-08-17T09:38:54.621Z,31.10
2022-08-17T09:41:28.284Z,31.13
2022-08-17T09:44:01.798Z,31.19
2022-08-17T09:46:37.465Z,31.30
2022-08-17T09:49:15.288Z,31.35
2022-08-17T09:51:50.431Z,31.31
2022-08-17T09:54:41.282Z,31.22
2022-08-17T09:57:29.918Z,31.25
2022-08-17T10:00:19.156Z,31.53
2022-08-17T10:02:56.986Z,31.61
2022-08-17T10:05:33.159Z,31.55
2022-08-17T10:08:09.719Z,31.77
2022-08-17T10:10:52.237Z,32.08
2022-08-17T10:13:34.616Z,32.14
2022-08-17T10:16:20.903Z,32.07
2022-08-17T10:18:57.355Z,31.94
2022-08-17T10:21:46.474Z,31.95
2022-08-17T10:24:37.861Z,32.03
2022-08-17T10:27:14.547Z,32.04
2022-08-17T10:29:49.741Z,32.14
2022-08-17T10:32:27.071Z,32.03
2022-08-17T10:35:04.575Z,31.87
2022-08-17T10:37:46.847Z,31.74
2022-08-17T10:40:26.494Z,31.66
2022-08-17T10:43:00.750Z,31.60
2022-08-17T10:45:35.484Z,31.58
2022-08-17T10:48:20.246Z,31.65
2022-08-17T10:51:00.167Z,31.62
2022-08-17T10:53:49.034Z,31.60
2022-08-17T10:56:22.115Z,31.63
2022-08-17T10:58:55.617Z,31.64
2022-08-17T11:01:53.060Z,31.68
2022-08-17T11:04:29.043Z,31.74
2022-08-17T11:07:07.673Z,31.67
2022-08-17T11:09:49.959Z,31.57
2022-08-17T11:12:33.081Z,31.39
2022-08-17T11:15:14.628Z,31.62
2022-08-17T11:17:51.633Z,32.23
2022-08-17T11:20:41.199Z,32.79
2022-08-17T11:23:22.502Z,32.93
2022-08-17T11:25:56.029Z,32.79
2022-08-17T11:28:34.952Z,32.74
2022-08-17T11:31:10.325Z,32.87
2022-08-17T11:34:04.912Z,33.11
2022-08-17T11:36:52.314Z,33.63
2022-08-17T11:39:29.481Z,33.63
2022-08-17T11:42:06.389Z,33.49
2022-08-17T11:44:42.207Z,33.22
2022-08-17T11:48:08.889Z,33.04
2022-08-17T11:51:05.821Z,32.78
2022-08-17T11:53:50.713Z,32.67
2022-08-17T11:56:41.424Z,32.51
2022-08-17T11:59:36.245Z,32.27
2022-08-17T12:02:32.330Z,32.04
2022-08-17T12:05:11.919Z,31.81
2022-08-17T12:07:45.172Z,31.59
2022-08-17T12:10:19.487Z,31.39
2022-08-17T12:12:52.756Z,31.20
2022-08-17T12:15:29.347Z,31.12
2022-08-17T12:18:00.660Z,31.13
2022-08-17T12:20:36.184Z,31.18
2022-08-17T12:23:11.005Z,31.35
2022-08-17T12:25:45.457Z,31.60
2022-08-17T12:28:23.211Z,31.89
2022-08-17T12:30:55.234Z,32.01
2022-08-17T12:33:28.977Z,32.01
2022-08-17T12:36:03.264Z,32.03
2022-08-17T12:38:36.405Z,32.14
2022-08-17T12:41:22.672Z,32.34
2022-08-17T12:44:02.747Z,32.70
2022-08-17T12:46:48.090Z,32.86
2022-08-17T12:49:23.180Z,33.08
2022-08-17T12:51:59.117Z,33.31
2022-08-17T12:54:33.957Z,33.72
2022-08-17T12:57:11.260Z,34.35
2022-08-17T12:59:44.221Z,35.12
2022-08-17T13:02:22.264Z,35.41
2022-08-17T13:04:53.841Z,35.17
2022-08-17T13:07:37.411Z,34.94
2022-08-17T13:10:09.181Z,34.65
2022-08-17T13:12:40.538Z,34.36
2022-08-17T13:15:19.050Z,33.95
2022-08-17T13:17:57.920Z,33.48
2022-08-17T13:20:29.513Z,33.10
2022-08-17T13:23:11.423Z,32.78
2022-08-17T13:25:54.629Z,32.48
2022-08-17T13:28:30.576Z,32.29
2022-08-17T13:31:24.592Z,32.11
2022-08-17T13:34:13.312Z,31.93
2022-08-17T13:36:45.314Z,31.84
2022-08-17T13:39:20.592Z,31.84
2022-08-17T13:41:53.522Z,31.90
2022-08-17T13:44:36.843Z,31.96
2022-08-17T13:47:20.466Z,32.00
2022-08-17T13:49:55.537Z,32.03
2022-08-17T13:52:38.755Z,32.08
2022-08-17T13:55:17.726Z,32.07
2022-08-17T13:58:03.984Z,32.03
2022-08-17T14:00:39.844Z,31.95
2022-08-17T14:03:11.395Z,31.89
2022-08-17T14:05:42.887Z,31.94
2022-08-17T14:08:15.192Z,32.01
2022-08-17T14:10:47.304Z,32.06
2022-08-17T14:13:18.973Z,32.04
2022-08-17T14:15:55.452Z,32.10
2022-08-17T14:18:51.999Z,32.17
2022-08-17T14:21:20.096Z,32.15
2022-08-17T14:23:54.915Z,32.10
2022-08-17T14:26:26.575Z,32.02
2022-08-17T14:28:57.953Z,31.95
2022-08-17T14:31:31.910Z,31.93
2022-08-17T14:34:06.809Z,31.83
2022-08-17T14:36:38.220Z,31.78
2022-08-17T14:39:09.660Z,31.70
2022-08-17T14:41:44.390Z,31.67
2022-08-17T14:44:15.819Z,31.61
2022-08-17T14:46:48.342Z,31.59
2022-08-17T14:49:21.028Z,31.58
2022-08-17T14:51:52.487Z,31.51
2022-08-17T14:54:33.729Z,31.43
2022-08-17T14:57:23.307Z,31.35
2022-08-17T14:59:59.695Z,31.26
2022-08-17T15:02:31.669Z,31.15
2022-08-17T15:05:03.640Z,31.12
2022-08-17T15:07:34.990Z,31.09
2022-08-17T15:10:06.860Z,31.03
2022-08-17T15:12:39.459Z,30.97
2022-08-17T15:15:13.121Z,30.94
2022-08-17T15:17:45.898Z,30.87
2022-08-17T15:20:19.379Z,30.79
2022-08-17T15:22:51.440Z,30.76
2022-08-17T15:25:23.034Z,30.72
2022-08-17T15:27:54.467Z,30.68
2022-08-17T15:30:30.117Z,30.66
2022-08-17T15:33:02.300Z,30.61
2022-08-17T15:35:35.296Z,30.60
2022-08-17T15:38:11.625Z,30.57
2022-08-17T15:40:44.914Z,30.52
2022-08-17T15:43:17.466Z,30.49
2022-08-17T15:45:54.850Z,30.46
2022-08-17T15:48:42.573Z,30.42
2022-08-17T15:51:15.843Z,30.36
2022-08-17T15:53:49.232Z,30.31
2022-08-17T15:56:21.021Z,30.26
2022-08-17T15:58:52.901Z,30.22
2022-08-17T16:02:14.259Z,30.18
2022-08-17T16:04:29.806Z,30.13
2022-08-17T16:07:02.697Z,30.10
2022-08-17T16:09:34.047Z,30.06
2022-08-17T16:12:12.097Z,30.04
2022-08-17T16:14:43.531Z,30.01
2022-08-17T16:17:38.554Z,29.98
2022-08-17T16:20:07.323Z,29.92
2022-08-17T16:22:39.509Z,29.90
2022-08-17T16:25:12.772Z,29.89
2022-08-17T16:27:44.358Z,29.88
2022-08-17T16:30:17.879Z,29.86
2022-08-17T16:32:51.747Z,29.84
2022-08-17T16:35:25.398Z,29.84
2022-08-17T16:37:57.509Z,29.86
2022-08-17T16:40:33.109Z,29.86
2022-08-17T16:43:10.868Z,29.81
2022-08-17T16:45:42.742Z,29.78
2022-08-17T16:48:15.697Z,29.77
2022-08-17T16:51:03.311Z,29.73
2022-08-17T16:53:36.056Z,29.65
2022-08-17T16:56:08.248Z,29.60
2022-08-17T16:58:41.251Z,29.53
2022-08-17T17:01:15.206Z,29.43
2022-08-17T17:03:48.643Z,29.39
2022-08-17T17:06:26.616Z,29.36
2022-08-17T17:09:00.402Z,29.31
2022-08-17T17:11:33.908Z,29.27
2022-08-17T17:14:06.798Z,29.21
2022-08-17T17:16:46.232Z,29.15
2022-08-17T17:19:34.569Z,29.09
2022-08-17T17:22:13.311Z,29.03
2022-08-17T17:24:50.272Z,28.92
2022-08-17T17:27:29.907Z,28.82
2022-08-17T17:30:06.399Z,28.74
2022-08-17T17:32:40.930Z,28.70
2022-08-17T17:35:17.769Z,28.64
2022-08-17T17:37:50.037Z,28.57
2022-08-17T17:40:24.078Z,28.49
2022-08-17T17:43:14.379Z,28.45
2022-08-17T17:45:53.808Z,28.40
2022-08-17T17:48:25.133Z,28.37
2022-08-17T17:51:03.020Z,28.35
2022-08-17T17:53:43.100Z,28.33
2022-08-17T17:56:43.731Z,28.31
2022-08-17T17:59:21.029Z,28.29
2022-08-17T18:01:57.705Z,28.23
2022-08-17T18:04:33.474Z,28.19
2022-08-17T18:07:17.284Z,28.16
2022-08-17T18:10:01.571Z,28.12
2022-08-17T18:12:38.110Z,28.07
2022-08-17T18:15:23.409Z,28.04
2022-08-17T18:18:20.127Z,28.02
2022-08-17T18:20:55.820Z,27.96
2022-08-17T18:23:28.769Z,27.91
2022-08-17T18:26:02.226Z,27.86
2022-08-17T18:28:34.854Z,27.82
2022-08-17T18:31:08.078Z,27.79
2022-08-17T18:33:40.065Z,27.74
2022-08-17T18:36:12.075Z,27.70
2022-08-17T18:38:43.892Z,27.69
2022-08-17T18:41:20.948Z,27.66
2022-08-17T18:44:02.755Z,27.64
2022-08-17T18:46:37.749Z,27.61
2022-08-17T18:49:25.871Z,27.57
2022-08-17T18:52:09.212Z,27.51
2022-08-17T18:54:40.715Z,27.45
2022-08-17T18:57:13.369Z,27.41
2022-08-17T18:59:45.898Z,27.39
2022-08-17T19:02:37.317Z,27.38
2022-08-17T19:05:26.723Z,27.33
2022-08-17T19:08:16.203Z,27.29
2022-08-17T19:10:48.888Z,27.27
2022-08-17T19:13:24.489Z,27.24
2022-08-17T19:16:14.459Z,27.21
2022-08-17T19:18:49.967Z,27.19
2022-08-17T19:21:23.780Z,27.18
2022-08-17T19:23:59.001Z,27.14
2022-08-17T19:26:55.163Z,27.10
2022-08-17T19:29:27.103Z,27.07
2022-08-17T19:31:59.412Z,27.05
2022-08-17T19:34:34.011Z,27.02
2022-08-17T19:37:09.386Z,26.99
2022-08-17T19:39:44.930Z,26.98
2022-08-17T19:42:18.630Z,26.97
2022-08-17T19:44:56.652Z,26.93
2022-08-17T19:47:53.853Z,26.89
2022-08-17T19:50:32.058Z,26.87
2022-08-17T19:53:08.241Z,26.84
2022-08-17T19:55:49.355Z,26.79
2022-08-17T19:58:26.237Z,26.75
2022-08-17T20:00:57.967Z,26.74
2022-08-17T20:03:52.631Z,26.72
2022-08-17T20:06:25.204Z,26.70
2022-08-17T20:09:00.150Z,26.67
2022-08-17T20:11:35.021Z,26.64
2022-08-17T20:14:09.694Z,26.62
2022-08-17T20:16:41.139Z,26.59
2022-08-17T20:19:18.846Z,26.55
2022-08-17T20:21:53.716Z,26.53
2022-08-17T20:24:30.410Z,26.50
2022-08-17T20:27:11.394Z,26.48
2022-08-17T20:30:02.781Z,26.46
2022-08-17T20:32:36.012Z,26.44
2022-08-17T20:35:22.768Z,26.47
2022-08-17T20:37:55.637Z,26.50
2022-08-17T20:40:28.737Z,26.54
2022-08-17T20:43:00.478Z,26.57
2022-08-17T20:45:50.596Z,26.58
2022-08-17T20:48:37.525Z,26.55
2022-08-17T20:51:20.612Z,26.53
2022-08-17T20:54:14.385Z,26.50
2022-08-17T20:56:58.071Z,26.50
2022-08-17T20:59:47.085Z,26.50
2022-08-17T21:02:22.395Z,26.50
2022-08-17T21:05:07.294Z,26.47
2022-08-17T21:07:55.987Z,26.44
2022-08-17T21:10:37.132Z,26.42
2022-08-17T21:13:25.477Z,26.40
2022-08-17T21:16:00.542Z,26.37
2022-08-17T21:18:39.021Z,26.33
2022-08-17T21:21:18.492Z,26.28
2022-08-17T21:24:00.781Z,26.28
2022-08-17T21:26:50.151Z,26.26
2022-08-17T21:29:31.967Z,26.25
2022-08-17T21:32:24.179Z,26.21
2022-08-17T21:35:14.279Z,26.17
2022-08-17T21:37:46.400Z,26.15
2022-08-17T21:40:25.214Z,26.11
2022-08-17T21:42:58.371Z,26.09
2022-08-17T21:45:32.452Z,26.09
2022-08-17T21:48:11.413Z,26.07
2022-08-17T21:50:44.564Z,26.06
2022-08-17T21:53:19.741Z,26.02
2022-08-17T21:55:51.893Z,25.93
2022-08-17T21:58:29.802Z,25.88
2022-08-17T22:01:19.132Z,25.88
2022-08-17T22:03:57.144Z,25.91
2022-08-17T22:06:29.377Z,25.91
2022-08-17T22:09:07.114Z,25.92
2022-08-17T22:11:53.016Z,25.95
2022-08-17T22:14:26.032Z,25.94
2022-08-17T22:17:11.202Z,25.89
2022-08-17T22:19:43.672Z,25.80
2022-08-17T22:22:26.651Z,25.78
2022-08-17T22:24:59.176Z,25.79
2022-08-17T22:27:48.338Z,25.79
2022-08-17T22:30:21.113Z,25.77
2022-08-17T22:32:53.140Z,25.72
2022-08-17T22:35:34.913Z,25.66
2022-08-17T22:38:23.225Z,25.63
2022-08-17T22:40:56.166Z,25.58
2022-08-17T22:43:30.082Z,25.54
2022-08-17T22:46:09.162Z,25.47
2022-08-17T22:48:48.099Z,25.42
2022-08-17T22:51:22.126Z,25.33
2022-08-17T22:54:11.857Z,25.32
2022-08-17T22:57:07.276Z,25.29
2022-08-17T22:59:42.464Z,25.30
2022-08-17T23:02:19.329Z,25.29
2022-08-17T23:04:52.953Z,25.27
2022-08-17T23:07:54.024Z,25.26
2022-08-17T23:10:25.829Z,25.22
2022-08-17T23:13:00.053Z,25.22
2022-08-17T23:15:33.990Z,25.19
2022-08-17T23:18:05.577Z,25.15
2022-08-17T23:20:38.261Z,25.13
2022-08-17T23:23:11.463Z,25.10
2022-08-17T23:25:45.003Z,25.11
2022-08-17T23:28:17.243Z,25.09
2022-08-17T23:30:48.848Z,25.07
2022-08-17T23:33:23.002Z,25.05
2022-08-17T23:35:54.510Z,25.03
2022-08-17T23:38:27.630Z,25.01
2022-08-17T23:41:01.539Z,24.97
2022-08-17T23:43:32.903Z,24.95
2022-08-17T23:46:04.333Z,24.95
2022-08-17T23:48:37.422Z,24.97
2022-08-17T23:51:11.168Z,25.01
2022-08-17T23:53:44.378Z,25.02
2022-08-17T23:56:16.066Z,25.07
2022-08-17T23:58:47.335Z,25.12
